sensor_id;sensor_type;location;lat;lon;timestamp;P1;durP1;ratioP1;P2;durP2;ratioP2
41219;SDS011;26951;47.338;9.196;2022-08-04T00:01:32;3.17;;;2.88;;
41219;SDS011;26951;47.338;9.196;2022-08-04T00:04:27;4.45;;;2.92;;
41219;SDS011;26951;47.338;9.196;2022-08-04T00:10:35;3.08;;;2.60;;
41219;SDS011;26951;47.338;9.196;2022-08-04T00:13:23;3.53;;;3.13;;
41219;SDS011;26951;47.338;9.196;2022-08-04T00:16:09;3.45;;;3.15;;
41219;SDS011;26951;47.338;9.196;2022-08-04T00:18:56;4.30;;;3.03;;
41219;SDS011;26951;47.338;9.196;2022-08-04T00:21:50;3.58;;;3.20;;
41219;SDS011;26951;47.338;9.196;2022-08-04T00:24:38;3.53;;;3.17;;
41219;SDS011;26951;47.338;9.196;2022-08-04T00:27:23;6.07;;;2.85;;
41219;SDS011;26951;47.338;9.196;2022-08-04T00:30:08;3.50;;;3.10;;
41219;SDS011;26951;47.338;9.196;2022-08-04T00:32:53;3.45;;;3.15;;
41219;SDS011;26951;47.338;9.196;2022-08-04T00:35:40;4.53;;;2.80;;
41219;SDS011;26951;47.338;9.196;2022-08-04T00:38:24;3.08;;;2.63;;
41219;SDS011;26951;47.338;9.196;2022-08-04T00:47:35;4.18;;;3.40;;
41219;SDS011;26951;47.338;9.196;2022-08-04T00:54:05;3.53;;;3.00;;
41219;SDS011;26951;47.338;9.196;2022-08-04T00:57:13;4.82;;;2.80;;
41219;SDS011;26951;47.338;9.196;2022-08-04T01:00:13;6.72;;;3.20;;
41219;SDS011;26951;47.338;9.196;2022-08-04T01:06:17;3.60;;;3.03;;
41219;SDS011;26951;47.338;9.196;2022-08-04T01:15:38;3.38;;;2.60;;
41219;SDS011;26951;47.338;9.196;2022-08-04T01:27:48;4.72;;;3.10;;
41219;SDS011;26951;47.338;9.196;2022-08-04T01:30:41;5.00;;;3.13;;
41219;SDS011;26951;47.338;9.196;2022-08-04T01:33:28;3.28;;;2.97;;
41219;SDS011;26951;47.338;9.196;2022-08-04T01:36:16;4.15;;;3.75;;
41219;SDS011;26951;47.338;9.196;2022-08-04T01:39:04;3.35;;;2.95;;
41219;SDS011;26951;47.338;9.196;2022-08-04T01:42:09;5.78;;;3.17;;
41219;SDS011;26951;47.338;9.196;2022-08-04T01:44:54;3.15;;;2.88;;
41219;SDS011;26951;47.338;9.196;2022-08-04T01:47:44;3.40;;;3.10;;
41219;SDS011;26951;47.338;9.196;2022-08-04T01:50:34;5.65;;;3.08;;
41219;SDS011;26951;47.338;9.196;2022-08-04T01:53:19;3.42;;;3.13;;
41219;SDS011;26951;47.338;9.196;2022-08-04T01:56:05;5.93;;;3.53;;
41219;SDS011;26951;47.338;9.196;2022-08-04T01:58:51;3.45;;;3.00;;
41219;SDS011;26951;47.338;9.196;2022-08-04T02:01:40;4.13;;;3.58;;
41219;SDS011;26951;47.338;9.196;2022-08-04T02:04:24;4.07;;;3.05;;
41219;SDS011;26951;47.338;9.196;2022-08-04T02:10:34;3.40;;;3.10;;
41219;SDS011;26951;47.338;9.196;2022-08-04T02:13:29;3.83;;;2.85;;
41219;SDS011;26951;47.338;9.196;2022-08-04T02:16:17;5.78;;;3.35;;
41219;SDS011;26951;47.338;9.196;2022-08-04T02:19:15;4.13;;;3.17;;
41219;SDS011;26951;47.338;9.196;2022-08-04T02:22:28;5.18;;;3.38;;
41219;SDS011;26951;47.338;9.196;2022-08-04T02:25:16;4.82;;;3.08;;
41219;SDS011;26951;47.338;9.196;2022-08-04T02:31:03;3.90;;;3.50;;
41219;SDS011;26951;47.338;9.196;2022-08-04T02:34:13;3.95;;;3.22;;
41219;SDS011;26951;47.338;9.196;2022-08-04T02:36:59;4.40;;;3.22;;
41219;SDS011;26951;47.338;9.196;2022-08-04T02:39:46;3.85;;;3.10;;
41219;SDS011;26951;47.338;9.196;2022-08-04T02:42:35;3.67;;;3.38;;
41219;SDS011;26951;47.338;9.196;2022-08-04T02:45:20;3.72;;;3.42;;
41219;SDS011;26951;47.338;9.196;2022-08-04T02:48:07;3.40;;;3.10;;
41219;SDS011;26951;47.338;9.196;2022-08-04T02:50:53;6.15;;;3.45;;
41219;SDS011;26951;47.338;9.196;2022-08-04T02:53:40;3.85;;;3.17;;
41219;SDS011;26951;47.338;9.196;2022-08-04T02:56:28;3.25;;;2.92;;
41219;SDS011;26951;47.338;9.196;2022-08-04T02:59:14;3.50;;;3.20;;
41219;SDS011;26951;47.338;9.196;2022-08-04T03:02:00;3.55;;;3.25;;
41219;SDS011;26951;47.338;9.196;2022-08-04T03:04:50;3.45;;;3.15;;
41219;SDS011;26951;47.338;9.196;2022-08-04T03:29:25;3.42;;;3.10;;
41219;SDS011;26951;47.338;9.196;2022-08-04T04:01:33;3.88;;;3.53;;
41219;SDS011;26951;47.338;9.196;2022-08-04T04:07:44;3.70;;;3.40;;
41219;SDS011;26951;47.338;9.196;2022-08-04T04:10:51;3.60;;;3.30;;
41219;SDS011;26951;47.338;9.196;2022-08-04T04:16:57;6.30;;;4.20;;
41219;SDS011;26951;47.338;9.196;2022-08-04T04:32:51;5.03;;;3.88;;
41219;SDS011;26951;47.338;9.196;2022-08-04T04:42:14;4.20;;;3.50;;
41219;SDS011;26951;47.338;9.196;2022-08-04T04:48:07;3.85;;;3.25;;
41219;SDS011;26951;47.338;9.196;2022-08-04T04:57:06;5.05;;;3.30;;
41219;SDS011;26951;47.338;9.196;2022-08-04T04:59:53;5.30;;;3.78;;
41219;SDS011;26951;47.338;9.196;2022-08-04T05:15:16;3.70;;;3.30;;
41219;SDS011;26951;47.338;9.196;2022-08-04T05:18:03;3.50;;;3.20;;
41219;SDS011;26951;47.338;9.196;2022-08-04T05:20:52;3.50;;;3.20;;
41219;SDS011;26951;47.338;9.196;2022-08-04T05:23:41;3.75;;;3.45;;
41219;SDS011;26951;47.338;9.196;2022-08-04T05:26:31;3.92;;;3.33;;
41219;SDS011;26951;47.338;9.196;2022-08-04T05:29:44;3.25;;;2.75;;
41219;SDS011;26951;47.338;9.196;2022-08-04T05:35:41;3.80;;;3.50;;
41219;SDS011;26951;47.338;9.196;2022-08-04T05:38:29;3.55;;;3.25;;
41219;SDS011;26951;47.338;9.196;2022-08-04T05:41:17;4.78;;;3.83;;
41219;SDS011;26951;47.338;9.196;2022-08-04T05:44:03;4.65;;;3.50;;
41219;SDS011;26951;47.338;9.196;2022-08-04T05:46:51;4.25;;;3.22;;
41219;SDS011;26951;47.338;9.196;2022-08-04T05:49:38;3.50;;;3.20;;
41219;SDS011;26951;47.338;9.196;2022-08-04T05:52:24;3.75;;;3.28;;
41219;SDS011;26951;47.338;9.196;2022-08-04T05:55:09;4.65;;;3.20;;
41219;SDS011;26951;47.338;9.196;2022-08-04T05:57:57;4.22;;;3.83;;
41219;SDS011;26951;47.338;9.196;2022-08-04T06:00:44;3.70;;;3.30;;
41219;SDS011;26951;47.338;9.196;2022-08-04T06:03:29;4.03;;;3.63;;
41219;SDS011;26951;47.338;9.196;2022-08-04T06:06:16;3.63;;;3.33;;
41219;SDS011;26951;47.338;9.196;2022-08-04T06:09:02;3.72;;;3.35;;
41219;SDS011;26951;47.338;9.196;2022-08-04T06:11:47;4.47;;;4.07;;
41219;SDS011;26951;47.338;9.196;2022-08-04T06:14:38;4.40;;;4.00;;
41219;SDS011;26951;47.338;9.196;2022-08-04T06:17:29;4.05;;;3.70;;
41219;SDS011;26951;47.338;9.196;2022-08-04T06:20:16;3.25;;;2.95;;
41219;SDS011;26951;47.338;9.196;2022-08-04T06:23:05;4.40;;;3.53;;
41219;SDS011;26951;47.338;9.196;2022-08-04T06:25:53;4.78;;;3.88;;
41219;SDS011;26951;47.338;9.196;2022-08-04T06:28:40;3.70;;;3.40;;
41219;SDS011;26951;47.338;9.196;2022-08-04T06:31:25;4.18;;;3.28;;
41219;SDS011;26951;47.338;9.196;2022-08-04T06:34:29;4.60;;;3.05;;
41219;SDS011;26951;47.338;9.196;2022-08-04T06:37:15;3.33;;;3.00;;
41219;SDS011;26951;47.338;9.196;2022-08-04T06:40:01;4.05;;;3.00;;
41219;SDS011;26951;47.338;9.196;2022-08-04T06:42:47;3.17;;;2.80;;
41219;SDS011;26951;47.338;9.196;2022-08-04T06:51:02;2.55;;;2.35;;
41219;SDS011;26951;47.338;9.196;2022-08-04T06:53:48;3.70;;;2.88;;
41219;SDS011;26951;47.338;9.196;2022-08-04T06:56:33;8.18;;;3.70;;
41219;SDS011;26951;47.338;9.196;2022-08-04T06:59:18;3.22;;;3.00;;
41219;SDS011;26951;47.338;9.196;2022-08-04T07:02:04;3.03;;;2.50;;
41219;SDS011;26951;47.338;9.196;2022-08-04T07:04:49;2.70;;;2.50;;
41219;SDS011;26951;47.338;9.196;2022-08-04T07:07:34;3.33;;;3.05;;
41219;SDS011;26951;47.338;9.196;2022-08-04T07:10:19;3.40;;;3.10;;
41219;SDS011;26951;47.338;9.196;2022-08-04T07:13:05;4.28;;;2.67;;
41219;SDS011;26951;47.338;9.196;2022-08-04T07:15:50;2.50;;;2.30;;
41219;SDS011;26951;47.338;9.196;2022-08-04T07:18:35;3.05;;;2.85;;
41219;SDS011;26951;47.338;9.196;2022-08-04T07:21:20;2.63;;;2.40;;
41219;SDS011;26951;47.338;9.196;2022-08-04T07:24:05;3.08;;;2.78;;
41219;SDS011;26951;47.338;9.196;2022-08-04T07:26:50;3.38;;;2.83;;
41219;SDS011;26951;47.338;9.196;2022-08-04T07:29:34;4.53;;;3.03;;
41219;SDS011;26951;47.338;9.196;2022-08-04T07:32:19;3.15;;;2.95;;
41219;SDS011;26951;47.338;9.196;2022-08-04T07:35:05;3.83;;;2.85;;
41219;SDS011;26951;47.338;9.196;2022-08-04T07:37:51;3.30;;;3.00;;
41219;SDS011;26951;47.338;9.196;2022-08-04T07:40:35;3.58;;;2.72;;
41219;SDS011;26951;47.338;9.196;2022-08-04T07:43:20;3.28;;;2.95;;
41219;SDS011;26951;47.338;9.196;2022-08-04T07:46:05;3.25;;;2.95;;
41219;SDS011;26951;47.338;9.196;2022-08-04T07:48:49;4.93;;;2.85;;
41219;SDS011;26951;47.338;9.196;2022-08-04T07:51:34;3.90;;;3.30;;
41219;SDS011;26951;47.338;9.196;2022-08-04T07:54:19;3.67;;;3.30;;
41219;SDS011;26951;47.338;9.196;2022-08-04T07:57:05;3.78;;;3.30;;
41219;SDS011;26951;47.338;9.196;2022-08-04T07:59:49;5.88;;;3.25;;
41219;SDS011;26951;47.338;9.196;2022-08-04T08:02:33;3.63;;;3.22;;
41219;SDS011;26951;47.338;9.196;2022-08-04T08:05:19;3.22;;;2.95;;
41219;SDS011;26951;47.338;9.196;2022-08-04T08:08:03;3.13;;;2.83;;
41219;SDS011;26951;47.338;9.196;2022-08-04T08:10:48;3.42;;;3.13;;
41219;SDS011;26951;47.338;9.196;2022-08-04T08:13:34;3.67;;;2.92;;
41219;SDS011;26951;47.338;9.196;2022-08-04T08:16:19;3.20;;;2.90;;
41219;SDS011;26951;47.338;9.196;2022-08-04T08:19:06;4.25;;;3.00;;
41219;SDS011;26951;47.338;9.196;2022-08-04T08:21:50;3.92;;;2.85;;
41219;SDS011;26951;47.338;9.196;2022-08-04T08:24:35;3.08;;;2.78;;
41219;SDS011;26951;47.338;9.196;2022-08-04T08:27:20;5.13;;;3.22;;
41219;SDS011;26951;47.338;9.196;2022-08-04T08:30:04;3.92;;;3.30;;
41219;SDS011;26951;47.338;9.196;2022-08-04T08:35:35;3.10;;;2.78;;
41219;SDS011;26951;47.338;9.196;2022-08-04T08:45:19;3.33;;;2.80;;
41219;SDS011;26951;47.338;9.196;2022-08-04T09:00:13;3.53;;;2.40;;
41219;SDS011;26951;47.338;9.196;2022-08-04T09:03:12;5.53;;;2.85;;
41219;SDS011;26951;47.338;9.196;2022-08-04T09:09:35;2.70;;;2.50;;
41219;SDS011;26951;47.338;9.196;2022-08-04T09:12:34;2.67;;;2.47;;
41219;SDS011;26951;47.338;9.196;2022-08-04T09:19:05;4.15;;;2.35;;
41219;SDS011;26951;47.338;9.196;2022-08-04T09:22:02;3.30;;;2.95;;
41219;SDS011;26951;47.338;9.196;2022-08-04T09:25:01;2.78;;;2.58;;
41219;SDS011;26951;47.338;9.196;2022-08-04T09:27:53;3.35;;;2.63;;
41219;SDS011;26951;47.338;9.196;2022-08-04T09:30:44;2.97;;;2.45;;
41219;SDS011;26951;47.338;9.196;2022-08-04T09:42:27;2.47;;;2.28;;
41219;SDS011;26951;47.338;9.196;2022-08-04T09:45:26;3.65;;;2.80;;
41219;SDS011;26951;47.338;9.196;2022-08-04T09:54:58;3.10;;;2.15;;
41219;SDS011;26951;47.338;9.196;2022-08-04T10:00:33;2.33;;;2.10;;
41219;SDS011;26951;47.338;9.196;2022-08-04T10:03:24;2.83;;;2.13;;
41219;SDS011;26951;47.338;9.196;2022-08-04T10:15:30;2.30;;;2.00;;
41219;SDS011;26951;47.338;9.196;2022-08-04T10:25:10;2.53;;;1.88;;
41219;SDS011;26951;47.338;9.196;2022-08-04T10:27:59;2.10;;;1.90;;
41219;SDS011;26951;47.338;9.196;2022-08-04T10:30:49;2.30;;;2.10;;
41219;SDS011;26951;47.338;9.196;2022-08-04T10:40:03;2.30;;;2.10;;
41219;SDS011;26951;47.338;9.196;2022-08-04T10:46:12;2.45;;;2.25;;
41219;SDS011;26951;47.338;9.196;2022-08-04T10:49:03;2.40;;;2.10;;
41219;SDS011;26951;47.338;9.196;2022-08-04T10:51:58;2.70;;;2.05;;
41219;SDS011;26951;47.338;9.196;2022-08-04T10:55:19;2.28;;;2.05;;
41219;SDS011;26951;47.338;9.196;2022-08-04T10:58:08;2.50;;;1.85;;
41219;SDS011;26951;47.338;9.196;2022-08-04T11:01:02;2.13;;;1.92;;
41219;SDS011;26951;47.338;9.196;2022-08-04T11:03:57;3.22;;;2.03;;
41219;SDS011;26951;47.338;9.196;2022-08-04T11:06:46;2.22;;;2.03;;
41219;SDS011;26951;47.338;9.196;2022-08-04T11:09:32;2.20;;;2.00;;
41219;SDS011;26951;47.338;9.196;2022-08-04T11:12:22;2.25;;;2.05;;
41219;SDS011;26951;47.338;9.196;2022-08-04T11:15:14;2.35;;;2.15;;
41219;SDS011;26951;47.338;9.196;2022-08-04T11:18:05;3.22;;;2.42;;
41219;SDS011;26951;47.338;9.196;2022-08-04T11:21:43;2.25;;;1.90;;
41219;SDS011;26951;47.338;9.196;2022-08-04T11:24:24;2.95;;;2.13;;
41219;SDS011;26951;47.338;9.196;2022-08-04T11:27:31;2.15;;;1.95;;
41219;SDS011;26951;47.338;9.196;2022-08-04T11:31:02;2.80;;;2.10;;
41219;SDS011;26951;47.338;9.196;2022-08-04T11:36:45;2.15;;;1.95;;
41219;SDS011;26951;47.338;9.196;2022-08-04T11:40:03;2.30;;;2.10;;
41219;SDS011;26951;47.338;9.196;2022-08-04T11:42:55;3.25;;;1.83;;
41219;SDS011;26951;47.338;9.196;2022-08-04T11:45:52;2.38;;;2.17;;
41219;SDS011;26951;47.338;9.196;2022-08-04T11:48:55;2.10;;;1.90;;
41219;SDS011;26951;47.338;9.196;2022-08-04T11:51:45;2.63;;;2.13;;
41219;SDS011;26951;47.338;9.196;2022-08-04T11:54:32;2.10;;;1.90;;
41219;SDS011;26951;47.338;9.196;2022-08-04T11:57:17;2.15;;;1.73;;
41219;SDS011;26951;47.338;9.196;2022-08-04T12:00:03;2.25;;;1.90;;
41219;SDS011;26951;47.338;9.196;2022-08-04T12:06:19;3.38;;;1.95;;
41219;SDS011;26951;47.338;9.196;2022-08-04T12:09:51;2.30;;;2.10;;
41219;SDS011;26951;47.338;9.196;2022-08-04T12:15:29;2.20;;;2.00;;
41219;SDS011;26951;47.338;9.196;2022-08-04T12:18:23;2.35;;;2.15;;
41219;SDS011;26951;47.338;9.196;2022-08-04T12:21:34;3.72;;;1.98;;
41219;SDS011;26951;47.338;9.196;2022-08-04T12:24:44;2.42;;;2.22;;
41219;SDS011;26951;47.338;9.196;2022-08-04T12:30:46;2.00;;;1.88;;
41219;SDS011;26951;47.338;9.196;2022-08-04T12:33:39;2.08;;;1.90;;
41219;SDS011;26951;47.338;9.196;2022-08-04T12:36:41;4.85;;;1.85;;
41219;SDS011;26951;47.338;9.196;2022-08-04T12:39:29;3.03;;;2.00;;
41219;SDS011;26951;47.338;9.196;2022-08-04T12:42:28;2.80;;;1.85;;
41219;SDS011;26951;47.338;9.196;2022-08-04T12:45:23;2.10;;;1.90;;
41219;SDS011;26951;47.338;9.196;2022-08-04T12:48:08;4.15;;;2.10;;
41219;SDS011;26951;47.338;9.196;2022-08-04T12:50:54;3.00;;;2.30;;
41219;SDS011;26951;47.338;9.196;2022-08-04T12:53:40;2.45;;;2.25;;
41219;SDS011;26951;47.338;9.196;2022-08-04T12:56:26;2.25;;;2.05;;
41219;SDS011;26951;47.338;9.196;2022-08-04T12:59:11;2.53;;;2.33;;
41219;SDS011;26951;47.338;9.196;2022-08-04T13:01:56;2.40;;;2.20;;
41219;SDS011;26951;47.338;9.196;2022-08-04T13:04:41;2.13;;;1.90;;
41219;SDS011;26951;47.338;9.196;2022-08-04T13:07:27;2.67;;;2.22;;
41219;SDS011;26951;47.338;9.196;2022-08-04T13:10:24;2.17;;;2.00;;
41219;SDS011;26951;47.338;9.196;2022-08-04T13:13:13;2.75;;;2.42;;
41219;SDS011;26951;47.338;9.196;2022-08-04T13:16:00;2.20;;;2.00;;
41219;SDS011;26951;47.338;9.196;2022-08-04T13:18:46;2.20;;;2.00;;
41219;SDS011;26951;47.338;9.196;2022-08-04T13:21:31;2.03;;;1.92;;
41219;SDS011;26951;47.338;9.196;2022-08-04T13:24:17;2.10;;;1.90;;
41219;SDS011;26951;47.338;9.196;2022-08-04T13:27:04;2.10;;;1.90;;
41219;SDS011;26951;47.338;9.196;2022-08-04T13:29:54;3.25;;;1.70;;
41219;SDS011;26951;47.338;9.196;2022-08-04T13:32:39;2.30;;;2.10;;
41219;SDS011;26951;47.338;9.196;2022-08-04T13:35:25;2.45;;;1.90;;
41219;SDS011;26951;47.338;9.196;2022-08-04T13:38:11;2.25;;;2.05;;
41219;SDS011;26951;47.338;9.196;2022-08-04T13:40:58;2.20;;;2.00;;
41219;SDS011;26951;47.338;9.196;2022-08-04T13:43:46;2.08;;;1.92;;
41219;SDS011;26951;47.338;9.196;2022-08-04T13:46:32;2.20;;;1.90;;
41219;SDS011;26951;47.338;9.196;2022-08-04T13:49:27;2.20;;;2.00;;
41219;SDS011;26951;47.338;9.196;2022-08-04T13:52:11;2.83;;;1.95;;
41219;SDS011;26951;47.338;9.196;2022-08-04T13:54:55;2.35;;;2.15;;
41219;SDS011;26951;47.338;9.196;2022-08-04T13:57:43;2.03;;;1.80;;
41219;SDS011;26951;47.338;9.196;2022-08-04T14:00:50;2.30;;;2.10;;
41219;SDS011;26951;47.338;9.196;2022-08-04T14:09:35;2.85;;;1.80;;
41219;SDS011;26951;47.338;9.196;2022-08-04T14:12:22;2.10;;;1.90;;
41219;SDS011;26951;47.338;9.196;2022-08-04T14:15:07;2.30;;;1.88;;
41219;SDS011;26951;47.338;9.196;2022-08-04T14:18:17;2.13;;;1.92;;
41219;SDS011;26951;47.338;9.196;2022-08-04T14:21:12;2.17;;;2.05;;
41219;SDS011;26951;47.338;9.196;2022-08-04T14:23:58;3.90;;;2.22;;
41219;SDS011;26951;47.338;9.196;2022-08-04T14:26:43;2.28;;;2.10;;
41219;SDS011;26951;47.338;9.196;2022-08-04T14:29:35;2.50;;;2.20;;
41219;SDS011;26951;47.338;9.196;2022-08-04T14:32:21;3.13;;;2.03;;
41219;SDS011;26951;47.338;9.196;2022-08-04T14:35:11;4.13;;;2.00;;
41219;SDS011;26951;47.338;9.196;2022-08-04T14:37:56;2.83;;;2.15;;
41219;SDS011;26951;47.338;9.196;2022-08-04T14:40:42;2.85;;;2.08;;
41219;SDS011;26951;47.338;9.196;2022-08-04T14:43:28;2.55;;;2.22;;
41219;SDS011;26951;47.338;9.196;2022-08-04T14:46:12;2.45;;;2.15;;
41219;SDS011;26951;47.338;9.196;2022-08-04T14:49:02;2.50;;;1.88;;
41219;SDS011;26951;47.338;9.196;2022-08-04T14:51:55;2.20;;;2.00;;
41219;SDS011;26951;47.338;9.196;2022-08-04T14:54:44;2.30;;;2.10;;
41219;SDS011;26951;47.338;9.196;2022-08-04T14:57:28;3.35;;;2.10;;
41219;SDS011;26951;47.338;9.196;2022-08-04T15:03:07;4.15;;;2.30;;
41219;SDS011;26951;47.338;9.196;2022-08-04T15:05:52;2.63;;;2.13;;
41219;SDS011;26951;47.338;9.196;2022-08-04T15:08:38;2.45;;;2.25;;
41219;SDS011;26951;47.338;9.196;2022-08-04T15:11:22;2.42;;;2.22;;
41219;SDS011;26951;47.338;9.196;2022-08-04T15:14:07;2.22;;;1.90;;
41219;SDS011;26951;47.338;9.196;2022-08-04T15:16:51;2.40;;;2.20;;
41219;SDS011;26951;47.338;9.196;2022-08-04T15:19:35;2.70;;;2.35;;
41219;SDS011;26951;47.338;9.196;2022-08-04T15:22:20;2.40;;;2.20;;
41219;SDS011;26951;47.338;9.196;2022-08-04T15:25:04;2.78;;;2.10;;
41219;SDS011;26951;47.338;9.196;2022-08-04T15:27:49;2.30;;;2.10;;
41219;SDS011;26951;47.338;9.196;2022-08-04T15:30:34;2.45;;;2.25;;
41219;SDS011;26951;47.338;9.196;2022-08-04T15:33:21;2.78;;;2.28;;
41219;SDS011;26951;47.338;9.196;2022-08-04T15:36:15;4.63;;;2.22;;
41219;SDS011;26951;47.338;9.196;2022-08-04T15:39:23;2.42;;;2.22;;
41219;SDS011;26951;47.338;9.196;2022-08-04T15:42:37;2.38;;;2.17;;
41219;SDS011;26951;47.338;9.196;2022-08-04T15:45:24;2.25;;;2.05;;
41219;SDS011;26951;47.338;9.196;2022-08-04T15:48:21;2.28;;;2.08;;
41219;SDS011;26951;47.338;9.196;2022-08-04T15:51:09;3.00;;;2.08;;
41219;SDS011;26951;47.338;9.196;2022-08-04T15:56:43;2.55;;;2.35;;
41219;SDS011;26951;47.338;9.196;2022-08-04T16:02:39;2.30;;;2.10;;
41219;SDS011;26951;47.338;9.196;2022-08-04T16:05:29;2.30;;;2.10;;
41219;SDS011;26951;47.338;9.196;2022-08-04T16:08:16;2.63;;;2.42;;
41219;SDS011;26951;47.338;9.196;2022-08-04T16:11:01;3.38;;;2.17;;
41219;SDS011;26951;47.338;9.196;2022-08-04T16:14:06;3.22;;;2.20;;
41219;SDS011;26951;47.338;9.196;2022-08-04T16:16:52;2.80;;;2.58;;
41219;SDS011;26951;47.338;9.196;2022-08-04T16:22:34;2.20;;;2.00;;
41219;SDS011;26951;47.338;9.196;2022-08-04T16:25:32;3.03;;;2.33;;
41219;SDS011;26951;47.338;9.196;2022-08-04T16:31:20;2.33;;;2.10;;
41219;SDS011;26951;47.338;9.196;2022-08-04T16:34:04;3.22;;;2.42;;
41219;SDS011;26951;47.338;9.196;2022-08-04T16:36:57;2.78;;;2.50;;
41219;SDS011;26951;47.338;9.196;2022-08-04T16:45:13;2.50;;;2.30;;
41219;SDS011;26951;47.338;9.196;2022-08-04T16:48:01;2.58;;;2.25;;
41219;SDS011;26951;47.338;9.196;2022-08-04T16:51:09;2.50;;;2.30;;
41219;SDS011;26951;47.338;9.196;2022-08-04T16:53:56;3.28;;;2.20;;
41219;SDS011;26951;47.338;9.196;2022-08-04T16:56:46;2.67;;;2.47;;
41219;SDS011;26951;47.338;9.196;2022-08-04T16:59:31;2.58;;;2.30;;
41219;SDS011;26951;47.338;9.196;2022-08-04T17:02:15;3.03;;;2.13;;
41219;SDS011;26951;47.338;9.196;2022-08-04T17:05:25;2.45;;;2.25;;
41219;SDS011;26951;47.338;9.196;2022-08-04T17:08:09;3.15;;;2.85;;
41219;SDS011;26951;47.338;9.196;2022-08-04T17:10:54;4.75;;;2.28;;
41219;SDS011;26951;47.338;9.196;2022-08-04T17:13:39;3.47;;;2.47;;
41219;SDS011;26951;47.338;9.196;2022-08-04T17:16:25;2.95;;;2.67;;
41219;SDS011;26951;47.338;9.196;2022-08-04T17:19:11;2.53;;;2.33;;
41219;SDS011;26951;47.338;9.196;2022-08-04T17:21:59;2.72;;;2.50;;
41219;SDS011;26951;47.338;9.196;2022-08-04T17:24:47;2.22;;;2.03;;
41219;SDS011;26951;47.338;9.196;2022-08-04T17:27:32;2.50;;;2.30;;
41219;SDS011;26951;47.338;9.196;2022-08-04T17:30:25;3.40;;;2.40;;
41219;SDS011;26951;47.338;9.196;2022-08-04T17:33:11;2.72;;;2.50;;
41219;SDS011;26951;47.338;9.196;2022-08-04T17:35:57;3.65;;;2.22;;
41219;SDS011;26951;47.338;9.196;2022-08-04T17:38:47;2.50;;;2.30;;
41219;SDS011;26951;47.338;9.196;2022-08-04T17:41:39;2.58;;;2.38;;
41219;SDS011;26951;47.338;9.196;2022-08-04T17:44:36;4.95;;;2.65;;
41219;SDS011;26951;47.338;9.196;2022-08-04T17:47:21;2.88;;;2.30;;
41219;SDS011;26951;47.338;9.196;2022-08-04T17:50:06;4.10;;;2.15;;
41219;SDS011;26951;47.338;9.196;2022-08-04T17:52:58;3.33;;;2.35;;
41219;SDS011;26951;47.338;9.196;2022-08-04T17:55:44;2.63;;;2.42;;
41219;SDS011;26951;47.338;9.196;2022-08-04T17:58:30;2.53;;;2.33;;
41219;SDS011;26951;47.338;9.196;2022-08-04T18:01:15;4.40;;;2.63;;
41219;SDS011;26951;47.338;9.196;2022-08-04T18:03:59;3.20;;;2.58;;
41219;SDS011;26951;47.338;9.196;2022-08-04T18:06:49;2.80;;;2.60;;
41219;SDS011;26951;47.338;9.196;2022-08-04T18:09:38;2.97;;;2.25;;
41219;SDS011;26951;47.338;9.196;2022-08-04T18:12:43;2.50;;;2.30;;
41219;SDS011;26951;47.338;9.196;2022-08-04T18:15:28;3.55;;;2.50;;
41219;SDS011;26951;47.338;9.196;2022-08-04T18:18:16;4.00;;;2.43;;
41219;SDS011;26951;47.338;9.196;2022-08-04T18:21:02;4.38;;;2.65;;
41219;SDS011;26951;47.338;9.196;2022-08-04T18:23:48;2.45;;;2.25;;
41219;SDS011;26951;47.338;9.196;2022-08-04T18:29:17;2.42;;;2.10;;
41219;SDS011;26951;47.338;9.196;2022-08-04T18:32:01;3.58;;;2.63;;
41219;SDS011;26951;47.338;9.196;2022-08-04T18:34:45;2.67;;;2.45;;
41219;SDS011;26951;47.338;9.196;2022-08-04T18:37:29;3.10;;;2.70;;
41219;SDS011;26951;47.338;9.196;2022-08-04T18:40:15;2.70;;;2.50;;
41219;SDS011;26951;47.338;9.196;2022-08-04T18:42:59;3.83;;;2.25;;
41219;SDS011;26951;47.338;9.196;2022-08-04T18:45:43;3.50;;;2.70;;
41219;SDS011;26951;47.338;9.196;2022-08-04T18:48:27;2.65;;;2.45;;
41219;SDS011;26951;47.338;9.196;2022-08-04T18:51:11;2.40;;;2.17;;
41219;SDS011;26951;47.338;9.196;2022-08-04T18:53:56;2.60;;;2.40;;
41219;SDS011;26951;47.338;9.196;2022-08-04T18:56:40;3.80;;;2.58;;
41219;SDS011;26951;47.338;9.196;2022-08-04T18:59:24;2.50;;;2.30;;
41219;SDS011;26951;47.338;9.196;2022-08-04T19:02:08;3.13;;;2.70;;
41219;SDS011;26951;47.338;9.196;2022-08-04T19:04:52;2.60;;;2.40;;
41219;SDS011;26951;47.338;9.196;2022-08-04T19:07:36;3.43;;;2.40;;
41219;SDS011;26951;47.338;9.196;2022-08-04T19:10:21;2.47;;;2.28;;
41219;SDS011;26951;47.338;9.196;2022-08-04T19:13:05;3.17;;;2.87;;
41219;SDS011;26951;47.338;9.196;2022-08-04T19:15:49;2.70;;;2.50;;
41219;SDS011;26951;47.338;9.196;2022-08-04T19:18:33;3.10;;;2.83;;
41219;SDS011;26951;47.338;9.196;2022-08-04T19:21:17;2.60;;;2.40;;
41219;SDS011;26951;47.338;9.196;2022-08-04T19:24:02;2.60;;;2.40;;
41219;SDS011;26951;47.338;9.196;2022-08-04T19:26:47;4.35;;;2.70;;
41219;SDS011;26951;47.338;9.196;2022-08-04T19:29:31;2.88;;;2.67;;
41219;SDS011;26951;47.338;9.196;2022-08-04T19:32:15;3.77;;;2.70;;
41219;SDS011;26951;47.338;9.196;2022-08-04T19:34:59;3.92;;;2.63;;
41219;SDS011;26951;47.338;9.196;2022-08-04T19:37:43;3.97;;;2.67;;
41219;SDS011;26951;47.338;9.196;2022-08-04T19:40:28;2.85;;;2.53;;
41219;SDS011;26951;47.338;9.196;2022-08-04T19:43:12;2.97;;;2.77;;
41219;SDS011;26951;47.338;9.196;2022-08-04T19:45:58;3.17;;;2.92;;
41219;SDS011;26951;47.338;9.196;2022-08-04T19:48:42;3.25;;;2.95;;
41219;SDS011;26951;47.338;9.196;2022-08-04T19:51:30;4.88;;;2.70;;
41219;SDS011;26951;47.338;9.196;2022-08-04T19:54:21;2.83;;;2.60;;
41219;SDS011;26951;47.338;9.196;2022-08-04T19:57:05;3.25;;;2.58;;
41219;SDS011;26951;47.338;9.196;2022-08-04T19:59:49;3.55;;;3.20;;
41219;SDS011;26951;47.338;9.196;2022-08-04T20:02:33;3.10;;;2.80;;
41219;SDS011;26951;47.338;9.196;2022-08-04T20:05:17;2.90;;;2.70;;
41219;SDS011;26951;47.338;9.196;2022-08-04T20:08:01;2.60;;;2.40;;
41219;SDS011;26951;47.338;9.196;2022-08-04T20:10:46;2.90;;;2.70;;
41219;SDS011;26951;47.338;9.196;2022-08-04T20:13:30;3.10;;;2.80;;
41219;SDS011;26951;47.338;9.196;2022-08-04T20:16:14;4.65;;;2.80;;
41219;SDS011;26951;47.338;9.196;2022-08-04T20:18:59;3.65;;;2.83;;
41219;SDS011;26951;47.338;9.196;2022-08-04T20:21:43;3.10;;;2.58;;
41219;SDS011;26951;47.338;9.196;2022-08-04T20:24:27;3.42;;;2.80;;
41219;SDS011;26951;47.338;9.196;2022-08-04T20:27:12;3.80;;;2.50;;
41219;SDS011;26951;47.338;9.196;2022-08-04T20:29:57;3.13;;;2.58;;
41219;SDS011;26951;47.338;9.196;2022-08-04T20:32:41;3.25;;;2.88;;
41219;SDS011;26951;47.338;9.196;2022-08-04T20:35:25;11.98;;;3.17;;
41219;SDS011;26951;47.338;9.196;2022-08-04T20:40:54;4.55;;;2.65;;
41219;SDS011;26951;47.338;9.196;2022-08-04T20:43:38;3.33;;;3.03;;
41219;SDS011;26951;47.338;9.196;2022-08-04T20:46:22;2.97;;;2.53;;
41219;SDS011;26951;47.338;9.196;2022-08-04T20:49:06;4.13;;;2.67;;
41219;SDS011;26951;47.338;9.196;2022-08-04T20:51:50;3.67;;;2.80;;
41219;SDS011;26951;47.338;9.196;2022-08-04T20:54:38;3.03;;;2.72;;
41219;SDS011;26951;47.338;9.196;2022-08-04T20:57:23;3.47;;;2.92;;
41219;SDS011;26951;47.338;9.196;2022-08-04T21:00:08;3.33;;;2.70;;
41219;SDS011;26951;47.338;9.196;2022-08-04T21:05:37;3.20;;;2.90;;
41219;SDS011;26951;47.338;9.196;2022-08-04T21:08:22;3.63;;;2.80;;
41219;SDS011;26951;47.338;9.196;2022-08-04T21:11:06;3.25;;;2.95;;
41219;SDS011;26951;47.338;9.196;2022-08-04T21:13:50;3.47;;;3.05;;
41219;SDS011;26951;47.338;9.196;2022-08-04T21:16:34;3.10;;;2.80;;
41219;SDS011;26951;47.338;9.196;2022-08-04T21:19:19;2.80;;;2.53;;
41219;SDS011;26951;47.338;9.196;2022-08-04T21:22:03;3.22;;;2.92;;
41219;SDS011;26951;47.338;9.196;2022-08-04T21:24:50;3.75;;;2.75;;